sensor_id;sensor_type;location;lat;lon;timestamp;pressure;altitude;pressure_sealevel;temperature;humidity
44481;BME280;30184;42.018;23.670;2023-05-29T00:00:32;91296.00;;;12.16;89.31
44481;BME280;30184;42.018;23.670;2023-05-29T00:03:02;91272.69;;;12.06;89.57
44481;BME280;30184;42.018;23.670;2023-05-29T00:05:32;91284.81;;;12.14;89.39
44481;BME280;30184;42.018;23.670;2023-05-29T00:08:02;91288.44;;;12.11;89.39
44481;BME280;30184;42.018;23.670;2023-05-29T00:10:31;91294.09;;;11.95;89.79
44481;BME280;30184;42.018;23.670;2023-05-29T00:13:00;91278.34;;;11.90;90.38
44481;BME280;30184;42.018;23.670;2023-05-29T00:15:31;91283.22;;;11.95;90.27
44481;BME280;30184;42.018;23.670;2023-05-29T00:18:00;91291.81;;;11.93;90.51
44481;BME280;30184;42.018;23.670;2023-05-29T00:20:30;91286.19;;;11.88;90.81
44481;BME280;30184;42.018;23.670;2023-05-29T00:23:01;91274.22;;;11.64;91.04
44481;BME280;30184;42.018;23.670;2023-05-29T00:25:32;91213.88;;;11.25;91.20
44481;BME280;30184;42.018;23.670;2023-05-29T00:28:01;91273.97;;;11.71;91.48
44481;BME280;30184;42.018;23.670;2023-05-29T00:30:32;91286.75;;;11.83;91.69
44481;BME280;30184;42.018;23.670;2023-05-29T00:33:01;91282.19;;;11.80;91.62
44481;BME280;30184;42.018;23.670;2023-05-29T00:35:30;91288.53;;;11.77;91.60
44481;BME280;30184;42.018;23.670;2023-05-29T00:37:59;91286.66;;;11.74;91.60
44481;BME280;30184;42.018;23.670;2023-05-29T00:40:28;91276.56;;;11.74;91.98
44481;BME280;30184;42.018;23.670;2023-05-29T00:42:57;91266.47;;;11.75;92.04
44481;BME280;30184;42.018;23.670;2023-05-29T00:45:26;91272.31;;;11.73;92.04
44481;BME280;30184;42.018;23.670;2023-05-29T00:47:57;91277.75;;;11.73;91.94
44481;BME280;30184;42.018;23.670;2023-05-29T00:50:27;91267.59;;;11.65;91.29
44481;BME280;30184;42.018;23.670;2023-05-29T00:52:56;91271.38;;;11.67;90.64
44481;BME280;30184;42.018;23.670;2023-05-29T00:55:26;91284.22;;;11.67;90.83
44481;BME280;30184;42.018;23.670;2023-05-29T00:57:55;91279.97;;;11.66;91.16
44481;BME280;30184;42.018;23.670;2023-05-29T01:00:24;91281.19;;;11.65;91.27
44481;BME280;30184;42.018;23.670;2023-05-29T01:02:54;91283.25;;;11.60;91.54
44481;BME280;30184;42.018;23.670;2023-05-29T01:05:25;91270.56;;;11.57;91.64
44481;BME280;30184;42.018;23.670;2023-05-29T01:07:55;91267.53;;;11.55;91.67
44481;BME280;30184;42.018;23.670;2023-05-29T01:10:24;91266.88;;;11.51;91.80
44481;BME280;30184;42.018;23.670;2023-05-29T01:12:57;91263.53;;;11.47;91.58
44481;BME280;30184;42.018;23.670;2023-05-29T01:15:35;91260.94;;;11.44;91.17
44481;BME280;30184;42.018;23.670;2023-05-29T01:18:19;91254.13;;;11.39;91.58
44481;BME280;30184;42.018;23.670;2023-05-29T01:21:02;91254.13;;;11.39;91.84
44481;BME280;30184;42.018;23.670;2023-05-29T01:24:03;91235.28;;;11.23;92.06
44481;BME280;30184;42.018;23.670;2023-05-29T01:26:47;91250.75;;;11.35;92.70
44481;BME280;30184;42.018;23.670;2023-05-29T01:29:19;91258.16;;;11.35;92.84
44481;BME280;30184;42.018;23.670;2023-05-29T01:31:52;91259.78;;;11.32;93.13
44481;BME280;30184;42.018;23.670;2023-05-29T01:34:23;91259.78;;;11.32;93.22
44481;BME280;30184;42.018;23.670;2023-05-29T01:36:52;91256.13;;;11.26;92.41
44481;BME280;30184;42.018;23.670;2023-05-29T01:39:23;91249.44;;;11.18;91.50
44481;BME280;30184;42.018;23.670;2023-05-29T01:41:54;91254.47;;;11.07;91.83
44481;BME280;30184;42.018;23.670;2023-05-29T01:44:24;91235.94;;;10.93;92.46
44481;BME280;30184;42.018;23.670;2023-05-29T01:46:54;91350.16;;;10.85;92.50
44481;BME280;30184;42.018;23.670;2023-05-29T01:49:23;91255.03;;;11.02;92.52
44481;BME280;30184;42.018;23.670;2023-05-29T01:51:53;91242.88;;;10.94;92.49
44481;BME280;30184;42.018;23.670;2023-05-29T01:54:23;91321.47;;;10.97;92.08
44481;BME280;30184;42.018;23.670;2023-05-29T01:56:53;91129.53;;;10.16;91.60
44481;BME280;30184;42.018;23.670;2023-05-29T01:59:23;91248.88;;;10.89;92.10
44481;BME280;30184;42.018;23.670;2023-05-29T02:01:52;91253.97;;;10.87;92.52
44481;BME280;30184;42.018;23.670;2023-05-29T02:04:21;91195.53;;;10.47;92.45
44481;BME280;30184;42.018;23.670;2023-05-29T02:06:51;91264.19;;;10.82;92.48
44481;BME280;30184;42.018;23.670;2023-05-29T02:09:20;91250.72;;;10.79;92.58
44481;BME280;30184;42.018;23.670;2023-05-29T02:11:50;91271.06;;;10.74;92.16
44481;BME280;30184;42.018;23.670;2023-05-29T02:14:21;91263.13;;;10.67;92.05
44481;BME280;30184;42.018;23.670;2023-05-29T02:16:53;91261.31;;;10.64;91.99
44481;BME280;30184;42.018;23.670;2023-05-29T02:19:22;91267.59;;;10.61;92.33
44481;BME280;30184;42.018;23.670;2023-05-29T02:21:53;91295.38;;;10.53;92.63
44481;BME280;30184;42.018;23.670;2023-05-29T02:24:22;91280.81;;;10.59;93.05
44481;BME280;30184;42.018;23.670;2023-05-29T02:26:51;91273.88;;;10.58;93.41
44481;BME280;30184;42.018;23.670;2023-05-29T02:29:22;91285.94;;;10.57;93.57
44481;BME280;30184;42.018;23.670;2023-05-29T02:31:54;91276.41;;;10.53;94.56
44481;BME280;30184;42.018;23.670;2023-05-29T02:34:23;91319.47;;;10.51;94.90
44481;BME280;30184;42.018;23.670;2023-05-29T02:36:53;91206.75;;;9.86;94.62
44481;BME280;30184;42.018;23.670;2023-05-29T02:39:24;91270.44;;;10.45;94.16
44481;BME280;30184;42.018;23.670;2023-05-29T02:41:53;91192.00;;;9.87;93.68
44481;BME280;30184;42.018;23.670;2023-05-29T02:44:24;91268.25;;;10.40;93.60
44481;BME280;30184;42.018;23.670;2023-05-29T02:46:53;91260.53;;;10.38;93.54
44481;BME280;30184;42.018;23.670;2023-05-29T02:49:22;91269.91;;;10.37;93.47
44481;BME280;30184;42.018;23.670;2023-05-29T02:51:52;91264.91;;;10.36;93.52
44481;BME280;30184;42.018;23.670;2023-05-29T02:54:24;91238.34;;;10.18;93.25
44481;BME280;30184;42.018;23.670;2023-05-29T02:56:54;91283.56;;;10.21;93.33
44481;BME280;30184;42.018;23.670;2023-05-29T02:59:24;91272.69;;;10.21;93.70
44481;BME280;30184;42.018;23.670;2023-05-29T03:01:54;91269.69;;;10.19;93.54
44481;BME280;30184;42.018;23.670;2023-05-29T03:04:23;91240.34;;;10.01;93.80
44481;BME280;30184;42.018;23.670;2023-05-29T03:06:52;91274.75;;;10.17;94.07
44481;BME280;30184;42.018;23.670;2023-05-29T03:09:21;91281.13;;;10.10;94.61
44481;BME280;30184;42.018;23.670;2023-05-29T03:11:51;91285.06;;;10.09;94.88
44481;BME280;30184;42.018;23.670;2023-05-29T03:14:20;91287.31;;;10.11;95.00
44481;BME280;30184;42.018;23.670;2023-05-29T03:16:51;91286.88;;;10.13;94.48
44481;BME280;30184;42.018;23.670;2023-05-29T03:19:21;91292.31;;;10.13;93.89
44481;BME280;30184;42.018;23.670;2023-05-29T03:21:49;91297.50;;;10.07;92.84
44481;BME280;30184;42.018;23.670;2023-05-29T03:24:19;91286.53;;;9.85;92.78
44481;BME280;30184;42.018;23.670;2023-05-29T03:26:51;91302.38;;;9.99;92.95
44481;BME280;30184;42.018;23.670;2023-05-29T03:29:20;91294.25;;;9.99;93.00
44481;BME280;30184;42.018;23.670;2023-05-29T03:31:52;91336.72;;;10.19;93.21
44481;BME280;30184;42.018;23.670;2023-05-29T03:34:26;91310.66;;;10.21;92.30
44481;BME280;30184;42.018;23.670;2023-05-29T03:36:57;91023.34;;;7.99;91.04
44481;BME280;30184;42.018;23.670;2023-05-29T03:39:28;91315.22;;;10.24;90.91
44481;BME280;30184;42.018;23.670;2023-05-29T03:41:59;91233.41;;;9.75;90.58
44481;BME280;30184;42.018;23.670;2023-05-29T03:44:29;91299.03;;;10.08;90.77
44481;BME280;30184;42.018;23.670;2023-05-29T03:47:00;91319.34;;;10.41;90.97
44481;BME280;30184;42.018;23.670;2023-05-29T03:49:33;91311.88;;;10.45;91.40
44481;BME280;30184;42.018;23.670;2023-05-29T03:52:03;91335.31;;;10.52;91.73
44481;BME280;30184;42.018;23.670;2023-05-29T03:54:33;91269.66;;;10.32;91.79
44481;BME280;30184;42.018;23.670;2023-05-29T03:57:03;91319.03;;;10.65;91.78
44481;BME280;30184;42.018;23.670;2023-05-29T03:59:33;91317.41;;;10.67;90.73
44481;BME280;30184;42.018;23.670;2023-05-29T04:02:04;91314.69;;;10.67;89.28
44481;BME280;30184;42.018;23.670;2023-05-29T04:04:33;91315.25;;;10.75;89.39
44481;BME280;30184;42.018;23.670;2023-05-29T04:07:03;91314.25;;;10.81;89.39
44481;BME280;30184;42.018;23.670;2023-05-29T04:09:32;91324.22;;;10.84;88.69
44481;BME280;30184;42.018;23.670;2023-05-29T04:12:03;91292.97;;;10.80;88.76
44481;BME280;30184;42.018;23.670;2023-05-29T04:14:34;91316.91;;;10.94;88.61
44481;BME280;30184;42.018;23.670;2023-05-29T04:17:04;91316.56;;;11.05;88.72
44481;BME280;30184;42.018;23.670;2023-05-29T04:19:34;91313.31;;;11.10;88.74
44481;BME280;30184;42.018;23.670;2023-05-29T04:22:03;91313.84;;;11.17;88.82
44481;BME280;30184;42.018;23.670;2023-05-29T04:24:32;91308.81;;;11.29;88.90
44481;BME280;30184;42.018;23.670;2023-05-29T04:27:03;91315.84;;;11.39;88.81
44481;BME280;30184;42.018;23.670;2023-05-29T04:29:34;91296.84;;;11.39;88.51
44481;BME280;30184;42.018;23.670;2023-05-29T04:32:05;91312.63;;;11.53;88.14
44481;BME280;30184;42.018;23.670;2023-05-29T04:34:35;91315.53;;;11.58;87.55
44481;BME280;30184;42.018;23.670;2023-05-29T04:37:07;91317.13;;;11.69;86.75
44481;BME280;30184;42.018;23.670;2023-05-29T04:39:38;91318.66;;;11.70;85.47
44481;BME280;30184;42.018;23.670;2023-05-29T04:42:09;91314.97;;;11.76;85.21
44481;BME280;30184;42.018;23.670;2023-05-29T04:44:38;91306.88;;;11.85;85.28
44481;BME280;30184;42.018;23.670;2023-05-29T04:47:10;91311.84;;;11.87;84.40
44481;BME280;30184;42.018;23.670;2023-05-29T04:49:40;91311.91;;;11.96;84.08
44481;BME280;30184;42.018;23.670;2023-05-29T04:52:10;91318.44;;;11.77;83.99
44481;BME280;30184;42.018;23.670;2023-05-29T04:54:39;91321.19;;;12.08;84.18
44481;BME280;30184;42.018;23.670;2023-05-29T04:57:10;91316.19;;;12.06;83.48
44481;BME280;30184;42.018;23.670;2023-05-29T04:59:40;91318.84;;;12.19;82.56
44481;BME280;30184;42.018;23.670;2023-05-29T05:02:10;91171.84;;;10.95;82.12
44481;BME280;30184;42.018;23.670;2023-05-29T05:04:39;91335.81;;;12.01;82.95
44481;BME280;30184;42.018;23.670;2023-05-29T05:07:10;91334.63;;;12.02;83.83
44481;BME280;30184;42.018;23.670;2023-05-29T05:09:39;91331.97;;;12.11;84.02
44481;BME280;30184;42.018;23.670;2023-05-29T05:12:12;91305.41;;;11.93;83.62
44481;BME280;30184;42.018;23.670;2023-05-29T05:14:41;91343.25;;;12.31;82.97
44481;BME280;30184;42.018;23.670;2023-05-29T05:17:12;91342.69;;;12.37;82.36
44481;BME280;30184;42.018;23.670;2023-05-29T05:19:42;91335.19;;;12.50;82.53
44481;BME280;30184;42.018;23.670;2023-05-29T05:22:11;91338.03;;;12.46;82.42
44481;BME280;30184;42.018;23.670;2023-05-29T05:24:40;91341.66;;;12.74;82.29
44481;BME280;30184;42.018;23.670;2023-05-29T05:27:09;91347.56;;;12.82;81.98
44481;BME280;30184;42.018;23.670;2023-05-29T05:29:39;91340.50;;;12.93;82.20
44481;BME280;30184;42.018;23.670;2023-05-29T05:32:08;91343.56;;;13.04;81.95
44481;BME280;30184;42.018;23.670;2023-05-29T05:34:38;91344.03;;;13.12;81.55
44481;BME280;30184;42.018;23.670;2023-05-29T05:37:08;91318.75;;;13.02;81.28
44481;BME280;30184;42.018;23.670;2023-05-29T05:39:40;91303.59;;;13.01;81.19
44481;BME280;30184;42.018;23.670;2023-05-29T05:42:09;91341.84;;;13.38;80.84
44481;BME280;30184;42.018;23.670;2023-05-29T05:44:52;91335.66;;;13.47;80.47
44481;BME280;30184;42.018;23.670;2023-05-29T05:47:22;91335.97;;;13.58;79.71
44481;BME280;30184;42.018;23.670;2023-05-29T05:49:53;91301.72;;;13.48;78.96
44481;BME280;30184;42.018;23.670;2023-05-29T05:52:23;91335.06;;;13.79;78.13
44481;BME280;30184;42.018;23.670;2023-05-29T05:54:54;91334.00;;;13.86;78.25
44481;BME280;30184;42.018;23.670;2023-05-29T05:57:23;91335.81;;;13.98;78.01
44481;BME280;30184;42.018;23.670;2023-05-29T05:59:53;91334.13;;;14.09;77.62
44481;BME280;30184;42.018;23.670;2023-05-29T06:02:24;91332.63;;;14.17;77.17
44481;BME280;30184;42.018;23.670;2023-05-29T06:04:55;91328.38;;;14.26;77.20
44481;BME280;30184;42.018;23.670;2023-05-29T06:07:24;91331.97;;;14.32;76.13
44481;BME280;30184;42.018;23.670;2023-05-29T06:09:54;91284.75;;;13.98;76.35
44481;BME280;30184;42.018;23.670;2023-05-29T06:12:23;91301.38;;;14.18;76.23
44481;BME280;30184;42.018;23.670;2023-05-29T06:15:01;91325.91;;;14.46;76.81
44481;BME280;30184;42.018;23.670;2023-05-29T06:17:31;91334.81;;;14.55;76.00
44481;BME280;30184;42.018;23.670;2023-05-29T06:20:06;91325.41;;;14.56;75.68
44481;BME280;30184;42.018;23.670;2023-05-29T06:22:38;91337.03;;;14.75;74.40
44481;BME280;30184;42.018;23.670;2023-05-29T06:25:07;91332.00;;;14.83;74.58
44481;BME280;30184;42.018;23.670;2023-05-29T06:27:37;91329.41;;;14.88;73.90
44481;BME280;30184;42.018;23.670;2023-05-29T06:30:09;91262.66;;;14.47;74.58
44481;BME280;30184;42.018;23.670;2023-05-29T06:32:39;91327.75;;;14.91;74.19
44481;BME280;30184;42.018;23.670;2023-05-29T06:35:10;91323.19;;;14.88;74.35
44481;BME280;30184;42.018;23.670;2023-05-29T06:37:40;91312.91;;;14.74;73.87
44481;BME280;30184;42.018;23.670;2023-05-29T06:40:10;91330.38;;;14.76;73.53
44481;BME280;30184;42.018;23.670;2023-05-29T06:42:39;91331.59;;;14.75;74.24
44481;BME280;30184;42.018;23.670;2023-05-29T06:45:14;91327.94;;;14.78;74.64
44481;BME280;30184;42.018;23.670;2023-05-29T06:47:44;91327.03;;;14.81;73.86
44481;BME280;30184;42.018;23.670;2023-05-29T06:50:14;91288.13;;;14.53;74.16
44481;BME280;30184;42.018;23.670;2023-05-29T06:52:43;91335.97;;;14.82;74.16
44481;BME280;30184;42.018;23.670;2023-05-29T06:55:35;91337.63;;;14.88;74.61
44481;BME280;30184;42.018;23.670;2023-05-29T06:58:04;91333.97;;;14.91;74.55
44481;BME280;30184;42.018;23.670;2023-05-29T07:00:34;91315.03;;;14.79;74.94
44481;BME280;30184;42.018;23.670;2023-05-29T07:03:26;91308.81;;;14.78;75.12
44481;BME280;30184;42.018;23.670;2023-05-29T07:05:57;91344.09;;;15.00;74.61
44481;BME280;30184;42.018;23.670;2023-05-29T07:08:27;91346.19;;;15.05;74.87
44481;BME280;30184;42.018;23.670;2023-05-29T07:10:56;91342.94;;;15.16;75.31
44481;BME280;30184;42.018;23.670;2023-05-29T07:13:26;91344.22;;;15.29;75.11
44481;BME280;30184;42.018;23.670;2023-05-29T07:15:55;91344.47;;;15.41;74.40
44481;BME280;30184;42.018;23.670;2023-05-29T07:18:30;91351.00;;;15.43;74.81
44481;BME280;30184;42.018;23.670;2023-05-29T07:21:02;91342.75;;;15.52;74.85
44481;BME280;30184;42.018;23.670;2023-05-29T07:23:31;91344.13;;;15.57;74.27
44481;BME280;30184;42.018;23.670;2023-05-29T07:26:00;91341.03;;;15.64;74.42
44481;BME280;30184;42.018;23.670;2023-05-29T07:28:30;91335.50;;;15.73;74.34
44481;BME280;30184;42.018;23.670;2023-05-29T07:31:00;91343.66;;;15.82;74.05
44481;BME280;30184;42.018;23.670;2023-05-29T07:33:29;91259.91;;;15.37;73.71
44481;BME280;30184;42.018;23.670;2023-05-29T07:35:58;91351.13;;;15.96;72.77
44481;BME280;30184;42.018;23.670;2023-05-29T07:38:28;91340.50;;;16.13;72.08
44481;BME280;30184;42.018;23.670;2023-05-29T07:40:58;91336.19;;;16.21;71.20
44481;BME280;30184;42.018;23.670;2023-05-29T07:43:38;91344.31;;;16.30;69.38
44481;BME280;30184;42.018;23.670;2023-05-29T07:46:09;91350.13;;;16.23;69.64
44481;BME280;30184;42.018;23.670;2023-05-29T07:48:40;91350.38;;;16.49;69.25
44481;BME280;30184;42.018;23.670;2023-05-29T07:51:10;91350.75;;;16.57;68.08
44481;BME280;30184;42.018;23.670;2023-05-29T07:53:45;91343.69;;;16.79;68.63
44481;BME280;30184;42.018;23.670;2023-05-29T07:56:16;91352.38;;;16.93;67.69
44481;BME280;30184;42.018;23.670;2023-05-29T07:58:45;91343.91;;;17.26;65.97
44481;BME280;30184;42.018;23.670;2023-05-29T08:01:15;91341.44;;;17.63;65.04
44481;BME280;30184;42.018;23.670;2023-05-29T08:03:45;91337.34;;;17.93;63.73
44481;BME280;30184;42.018;23.670;2023-05-29T08:06:22;91335.88;;;18.18;61.34
44481;BME280;30184;42.018;23.670;2023-05-29T08:08:53;91327.47;;;18.47;60.96
44481;BME280;30184;42.018;23.670;2023-05-29T08:11:22;91318.03;;;18.28;59.39
44481;BME280;30184;42.018;23.670;2023-05-29T08:13:51;91331.16;;;18.44;60.16
44481;BME280;30184;42.018;23.670;2023-05-29T08:16:21;91331.84;;;18.59;59.09
44481;BME280;30184;42.018;23.670;2023-05-29T08:18:50;91332.63;;;18.60;59.37
44481;BME280;30184;42.018;23.670;2023-05-29T08:21:19;91333.97;;;18.70;58.36
44481;BME280;30184;42.018;23.670;2023-05-29T08:23:49;91328.66;;;18.67;58.29
44481;BME280;30184;42.018;23.670;2023-05-29T08:26:19;91340.63;;;18.63;59.32
44481;BME280;30184;42.018;23.670;2023-05-29T08:28:48;91329.25;;;18.76;59.22
44481;BME280;30184;42.018;23.670;2023-05-29T08:31:18;91329.38;;;18.87;58.06
44481;BME280;30184;42.018;23.670;2023-05-29T08:33:47;91335.81;;;18.84;58.17
44481;BME280;30184;42.018;23.670;2023-05-29T08:36:17;91316.56;;;18.84;57.92
44481;BME280;30184;42.018;23.670;2023-05-29T08:38:48;91332.06;;;19.13;57.00
44481;BME280;30184;42.018;23.670;2023-05-29T08:41:24;91347.88;;;19.18;57.70
44481;BME280;30184;42.018;23.670;2023-05-29T08:43:56;91317.53;;;19.07;56.64
44481;BME280;30184;42.018;23.670;2023-05-29T08:46:28;91334.38;;;18.89;57.23
44481;BME280;30184;42.018;23.670;2023-05-29T08:48:58;91332.81;;;18.82;57.17
44481;BME280;30184;42.018;23.670;2023-05-29T08:51:32;91339.78;;;18.78;57.17
44481;BME280;30184;42.018;23.670;2023-05-29T08:54:07;91335.69;;;18.68;57.38
44481;BME280;30184;42.018;23.670;2023-05-29T08:56:38;91337.06;;;18.57;57.22
44481;BME280;30184;42.018;23.670;2023-05-29T08:59:07;91047.19;;;16.55;57.26
44481;BME280;30184;42.018;23.670;2023-05-29T09:01:38;91334.25;;;18.52;57.15
44481;BME280;30184;42.018;23.670;2023-05-29T09:04:08;91339.75;;;18.52;57.21
44481;BME280;30184;42.018;23.670;2023-05-29T09:06:38;91332.34;;;18.58;56.67
44481;BME280;30184;42.018;23.670;2023-05-29T09:09:09;91335.63;;;18.62;58.38
44481;BME280;30184;42.018;23.670;2023-05-29T09:11:39;91340.97;;;18.71;59.10
44481;BME280;30184;42.018;23.670;2023-05-29T09:14:12;91283.72;;;18.44;57.51
44481;BME280;30184;42.018;23.670;2023-05-29T09:17:01;91294.81;;;18.55;56.83
44481;BME280;30184;42.018;23.670;2023-05-29T09:19:31;91338.75;;;18.75;57.55
44481;BME280;30184;42.018;23.670;2023-05-29T09:22:02;91339.28;;;18.79;58.05
44481;BME280;30184;42.018;23.670;2023-05-29T09:24:32;91337.06;;;18.83;58.49
44481;BME280;30184;42.018;23.670;2023-05-29T09:27:04;91029.13;;;16.84;57.80
44481;BME280;30184;42.018;23.670;2023-05-29T09:29:38;91332.91;;;18.93;57.99
44481;BME280;30184;42.018;23.670;2023-05-29T09:32:09;91337.81;;;18.84;58.49
44481;BME280;30184;42.018;23.670;2023-05-29T09:34:38;91341.28;;;18.79;58.69
44481;BME280;30184;42.018;23.670;2023-05-29T09:37:08;91337.72;;;18.73;59.29
44481;BME280;30184;42.018;23.670;2023-05-29T09:39:45;91335.47;;;18.71;58.52
44481;BME280;30184;42.018;23.670;2023-05-29T09:42:17;91326.72;;;18.73;59.03
44481;BME280;30184;42.018;23.670;2023-05-29T09:44:49;91328.41;;;18.64;58.27
44481;BME280;30184;42.018;23.670;2023-05-29T09:47:19;91321.72;;;18.71;59.39
44481;BME280;30184;42.018;23.670;2023-05-29T09:49:49;91326.06;;;18.83;59.70
44481;BME280;30184;42.018;23.670;2023-05-29T09:52:21;91318.19;;;18.96;58.80
44481;BME280;30184;42.018;23.670;2023-05-29T09:54:51;91311.31;;;19.12;58.94
44481;BME280;30184;42.018;23.670;2023-05-29T09:57:22;91322.38;;;19.23;57.58
44481;BME280;30184;42.018;23.670;2023-05-29T09:59:54;91308.22;;;19.36;56.99
44481;BME280;30184;42.018;23.670;2023-05-29T10:02:24;91305.75;;;19.81;55.63
44481;BME280;30184;42.018;23.670;2023-05-29T10:04:53;91294.34;;;20.10;55.13
44481;BME280;30184;42.018;23.670;2023-05-29T10:07:26;91293.88;;;20.23;53.17
44481;BME280;30184;42.018;23.670;2023-05-29T10:09:59;91298.75;;;20.56;53.71
44481;BME280;30184;42.018;23.670;2023-05-29T10:12:36;91291.00;;;20.82;53.22
44481;BME280;30184;42.018;23.670;2023-05-29T10:15:11;91281.22;;;20.75;52.59
44481;BME280;30184;42.018;23.670;2023-05-29T10:17:47;91279.47;;;21.11;51.53
44481;BME280;30184;42.018;23.670;2023-05-29T10:20:20;91179.22;;;20.75;51.33
44481;BME280;30184;42.018;23.670;2023-05-29T10:22:51;91259.34;;;21.61;50.21
44481;BME280;30184;42.018;23.670;2023-05-29T10:25:21;91247.97;;;21.81;47.90
44481;BME280;30184;42.018;23.670;2023-05-29T10:27:51;91136.50;;;21.04;47.84
44481;BME280;30184;42.018;23.670;2023-05-29T10:30:27;91245.22;;;21.87;46.82
44481;BME280;30184;42.018;23.670;2023-05-29T10:33:20;91249.28;;;21.64;47.06
44481;BME280;30184;42.018;23.670;2023-05-29T10:35:55;91254.63;;;21.34;48.76
44481;BME280;30184;42.018;23.670;2023-05-29T10:38:30;91250.88;;;21.26;49.08
44481;BME280;30184;42.018;23.670;2023-05-29T10:41:32;91264.19;;;21.10;47.94
44481;BME280;30184;42.018;23.670;2023-05-29T10:44:39;91257.91;;;20.82;47.28
44481;BME280;30184;42.018;23.670;2023-05-29T10:47:11;91212.28;;;20.47;49.06
44481;BME280;30184;42.018;23.670;2023-05-29T10:49:49;91243.13;;;20.85;50.18
44481;BME280;30184;42.018;23.670;2023-05-29T10:52:19;91253.13;;;20.88;51.47
44481;BME280;30184;42.018;23.670;2023-05-29T10:54:51;91254.88;;;20.69;51.45
44481;BME280;30184;42.018;23.670;2023-05-29T10:57:21;91261.16;;;20.53;51.67
44481;BME280;30184;42.018;23.670;2023-05-29T11:00:09;91259.16;;;20.64;50.16
44481;BME280;30184;42.018;23.670;2023-05-29T11:02:41;91253.91;;;20.66;50.86
44481;BME280;30184;42.018;23.670;2023-05-29T11:05:21;91256.66;;;20.83;49.46
44481;BME280;30184;42.018;23.670;2023-05-29T11:07:53;91181.72;;;20.57;49.61
44481;BME280;30184;42.018;23.670;2023-05-29T11:10:43;91233.81;;;21.10;49.21
44481;BME280;30184;42.018;23.670;2023-05-29T11:13:23;91229.56;;;21.26;48.12
44481;BME280;30184;42.018;23.670;2023-05-29T11:16:19;91219.16;;;21.60;46.81
44481;BME280;30184;42.018;23.670;2023-05-29T11:18:49;91211.28;;;21.92;46.22
44481;BME280;30184;42.018;23.670;2023-05-29T11:21:23;91210.41;;;22.19;45.98
44481;BME280;30184;42.018;23.670;2023-05-29T11:23:57;91200.28;;;22.33;45.93
44481;BME280;30184;42.018;23.670;2023-05-29T11:26:27;91202.38;;;22.57;46.68
44481;BME280;30184;42.018;23.670;2023-05-29T11:28:58;91199.53;;;22.62;43.05
44481;BME280;30184;42.018;23.670;2023-05-29T11:31:31;91185.06;;;22.86;43.09
44481;BME280;30184;42.018;23.670;2023-05-29T11:34:02;91183.63;;;22.80;42.56
44481;BME280;30184;42.018;23.670;2023-05-29T11:36:33;91190.22;;;23.01;42.24
44481;BME280;30184;42.018;23.670;2023-05-29T11:39:05;91186.94;;;23.02;42.27
44481;BME280;30184;42.018;23.670;2023-05-29T11:41:35;91193.88;;;22.85;42.84
44481;BME280;30184;42.018;23.670;2023-05-29T11:44:04;91199.78;;;22.64;43.29
44481;BME280;30184;42.018;23.670;2023-05-29T11:46:36;91106.66;;;21.77;43.17
44481;BME280;30184;42.018;23.670;2023-05-29T11:49:05;91195.56;;;22.22;43.83
44481;BME280;30184;42.018;23.670;2023-05-29T11:51:35;91188.38;;;22.03;43.96
44481;BME280;30184;42.018;23.670;2023-05-29T11:54:04;91199.25;;;21.78;45.08
44481;BME280;30184;42.018;23.670;2023-05-29T11:56:34;91176.09;;;21.40;44.82
44481;BME280;30184;42.018;23.670;2023-05-29T11:59:04;91197.09;;;21.60;45.96
44481;BME280;30184;42.018;23.670;2023-05-29T12:01:37;91187.81;;;21.57;45.83
44481;BME280;30184;42.018;23.670;2023-05-29T12:04:15;91201.31;;;21.78;44.35
44481;BME280;30184;42.018;23.670;2023-05-29T12:06:45;91174.91;;;21.82;43.32
44481;BME280;30184;42.018;23.670;2023-05-29T12:09:24;91188.84;;;22.07;44.17
44481;BME280;30184;42.018;23.670;2023-05-29T12:12:00;91178.44;;;22.29;44.65
44481;BME280;30184;42.018;23.670;2023-05-29T12:14:30;91172.69;;;22.22;44.50
44481;BME280;30184;42.018;23.670;2023-05-29T12:17:01;91177.19;;;22.25;44.21
44481;BME280;30184;42.018;23.670;2023-05-29T12:19:31;91073.81;;;21.68;44.54
44481;BME280;30184;42.018;23.670;2023-05-29T12:22:00;91172.47;;;22.55;41.86
44481;BME280;30184;42.018;23.670;2023-05-29T12:24:29;91169.88;;;22.33;43.16
44481;BME280;30184;42.018;23.670;2023-05-29T12:27:06;91185.41;;;22.36;43.43
44481;BME280;30184;42.018;23.670;2023-05-29T12:29:36;91172.63;;;22.33;42.07
44481;BME280;30184;42.018;23.670;2023-05-29T12:32:10;91187.28;;;22.17;41.63
44481;BME280;30184;42.018;23.670;2023-05-29T12:34:39;91177.28;;;22.08;42.28
44481;BME280;30184;42.018;23.670;2023-05-29T12:37:09;91175.47;;;22.22;42.50
44481;BME280;30184;42.018;23.670;2023-05-29T12:39:41;91176.16;;;22.28;42.42
44481;BME280;30184;42.018;23.670;2023-05-29T12:42:11;91181.25;;;22.24;42.91
44481;BME280;30184;42.018;23.670;2023-05-29T12:44:42;91179.03;;;22.11;43.80
44481;BME280;30184;42.018;23.670;2023-05-29T12:47:23;91180.81;;;22.09;44.29
44481;BME280;30184;42.018;23.670;2023-05-29T12:49:52;91172.66;;;22.27;43.85
44481;BME280;30184;42.018;23.670;2023-05-29T12:52:23;91183.75;;;22.22;44.70
44481;BME280;30184;42.018;23.670;2023-05-29T12:54:52;91172.47;;;22.20;45.36
44481;BME280;30184;42.018;23.670;2023-05-29T12:57:22;91179.72;;;22.23;46.84
44481;BME280;30184;42.018;23.670;2023-05-29T12:59:51;91174.44;;;22.25;46.16
44481;BME280;30184;42.018;23.670;2023-05-29T13:02:21;91172.94;;;22.24;45.24
44481;BME280;30184;42.018;23.670;2023-05-29T13:04:52;91170.50;;;22.50;44.92
44481;BME280;30184;42.018;23.670;2023-05-29T13:07:21;91093.41;;;21.65;44.31
44481;BME280;30184;42.018;23.670;2023-05-29T13:09:50;91118.94;;;21.76;44.93
44481;BME280;30184;42.018;23.670;2023-05-29T13:12:20;91168.81;;;21.95;46.41